createdAt,value
2023-05-07T00:00:05.888Z,58.06
2023-05-07T00:04:22.774Z,58.15
2023-05-07T00:08:32.311Z,58.16
2023-05-07T00:12:42.011Z,58.24
2023-05-07T00:16:41.326Z,58.34
2023-05-07T00:20:50.921Z,58.49
2023-05-07T00:24:53.464Z,58.63
2023-05-07T00:29:03.230Z,58.71
2023-05-07T00:33:12.681Z,58.68
2023-05-07T00:37:12.656Z,58.75
2023-05-07T00:41:09.871Z,58.87
2023-05-07T00:45:19.280Z,58.91
2023-05-07T00:49:28.849Z,58.90
2023-05-07T00:53:38.394Z,58.88
2023-05-07T00:57:20.704Z,58.89
2023-05-07T01:01:30.498Z,58.90
2023-05-07T01:05:22.916Z,58.88
2023-05-07T01:09:32.885Z,58.92
2023-05-07T01:13:35.075Z,58.92
2023-05-07T01:17:43.892Z,58.90
2023-05-07T01:22:02.884Z,58.89
2023-05-07T01:26:11.889Z,58.90
2023-05-07T01:30:21.352Z,58.98
2023-05-07T01:34:30.758Z,58.99
2023-05-07T01:38:40.353Z,59.04
2023-05-07T01:42:49.926Z,59.01
2023-05-07T01:46:59.438Z,59.01
2023-05-07T01:51:09.331Z,59.02
2023-05-07T01:55:04.613Z,59.05
2023-05-07T01:59:14.050Z,59.07
2023-05-07T02:19:49.852Z,59.53
2023-05-07T02:23:59.411Z,59.38
2023-05-07T02:28:00.635Z,59.35
2023-05-07T02:32:10.335Z,59.42
2023-05-07T02:36:19.769Z,59.56
2023-05-07T02:40:34.779Z,59.68
2023-05-07T02:44:44.292Z,59.77
2023-05-07T02:48:46.115Z,59.80
2023-05-07T02:52:48.454Z,59.84
2023-05-07T02:56:29.151Z,59.86
2023-05-07T03:00:37.642Z,59.81
2023-05-07T03:04:53.331Z,60.00
2023-05-07T03:09:01.505Z,60.17
2023-05-07T03:13:11.060Z,60.38
2023-05-07T03:17:09.902Z,60.60
2023-05-07T03:21:18.032Z,60.88
2023-05-07T03:25:27.539Z,61.10
2023-05-07T03:29:36.978Z,61.23
2023-05-07T03:33:40.867Z,61.37
2023-05-07T03:37:30.140Z,61.44
2023-05-07T03:41:32.165Z,61.39
2023-05-07T03:45:34.397Z,61.72
2023-05-07T03:49:40.200Z,61.86
2023-05-07T03:53:49.631Z,63.42
2023-05-07T03:57:59.100Z,64.36
2023-05-07T04:02:08.684Z,64.25
2023-05-07T04:05:58.194Z,63.82
2023-05-07T04:10:08.044Z,63.31
2023-05-07T04:14:17.783Z,63.01
2023-05-07T04:18:27.182Z,62.71
2023-05-07T04:22:37.904Z,62.40
2023-05-07T04:26:40.692Z,62.10
2023-05-07T04:30:32.928Z,61.75
2023-05-07T04:34:42.380Z,61.50
2023-05-07T04:38:51.816Z,61.19
2023-05-07T04:43:01.671Z,60.91
2023-05-07T04:46:54.177Z,60.59
2023-05-07T04:51:03.814Z,60.36
2023-05-07T04:55:13.412Z,58.68
2023-05-07T04:59:15.764Z,57.77
2023-05-07T05:03:25.362Z,57.88
2023-05-07T05:07:25.063Z,58.20
2023-05-07T05:11:34.498Z,58.30
2023-05-07T05:15:44.129Z,58.04
2023-05-07T05:19:53.713Z,58.01
2023-05-07T05:24:03.230Z,57.96
2023-05-07T05:28:12.757Z,57.72
2023-05-07T05:32:22.472Z,57.52
2023-05-07T05:36:32.146Z,57.64
2023-05-07T05:40:41.604Z,57.95
2023-05-07T05:44:30.862Z,58.17
2023-05-07T05:48:38.873Z,58.45
2023-05-07T05:52:48.350Z,58.69
2023-05-07T05:56:54.280Z,58.86
2023-05-07T06:00:53.835Z,58.95
2023-05-07T06:05:03.611Z,59.07
2023-05-07T06:08:57.053Z,59.06
2023-05-07T06:13:06.720Z,59.06
2023-05-07T06:17:16.308Z,59.17
2023-05-07T06:21:18.224Z,59.31
2023-05-07T06:25:27.667Z,59.34
2023-05-07T06:29:37.129Z,59.28
2023-05-07T06:33:46.608Z,59.22
2023-05-07T06:37:51.293Z,59.16
2023-05-07T06:41:40.612Z,59.19
2023-05-07T06:45:42.245Z,59.13
2023-05-07T06:49:51.639Z,59.05
2023-05-07T06:53:59.217Z,59.15
2023-05-07T06:58:01.836Z,59.05
2023-05-07T07:02:11.366Z,58.78
2023-05-07T07:06:12.946Z,58.50
2023-05-07T07:10:21.228Z,58.33
2023-05-07T07:14:00.859Z,58.36
2023-05-07T07:17:39.498Z,58.55
2023-05-07T07:21:20.852Z,58.67
2023-05-07T07:25:17.269Z,58.66
2023-05-07T07:29:06.503Z,58.61
2023-05-07T07:33:16.196Z,58.55
2023-05-07T07:41:55.100Z,58.68
2023-05-07T07:45:54.535Z,58.62
2023-05-07T07:49:12.624Z,58.52
2023-05-07T07:53:22.409Z,58.47
2023-05-07T07:57:31.862Z,58.19
2023-05-07T08:01:42.441Z,57.90
2023-05-07T08:05:45.825Z,57.62
2023-05-07T08:09:55.362Z,57.45
2023-05-07T08:14:05.151Z,57.61
2023-05-07T08:18:15.017Z,57.60
2023-05-07T08:22:24.280Z,57.44
2023-05-07T08:26:34.100Z,57.46
2023-05-07T08:30:43.677Z,57.39
2023-05-07T08:34:45.884Z,57.23
2023-05-07T08:38:50.509Z,56.96
2023-05-07T08:42:53.379Z,56.70
2023-05-07T08:47:02.339Z,56.43
2023-05-07T08:51:12.278Z,56.65
2023-05-07T08:55:22.105Z,56.60
2023-05-07T08:59:11.956Z,56.29
2023-05-07T09:03:21.421Z,56.02
2023-05-07T09:07:24.306Z,56.04
2023-05-07T09:11:25.262Z,56.10
2023-05-07T09:15:34.706Z,56.39
2023-05-07T09:19:44.184Z,56.54
2023-05-07T09:23:53.726Z,56.61
2023-05-07T09:28:01.969Z,56.71
2023-05-07T09:32:11.566Z,56.85
2023-05-07T09:36:10.063Z,56.98
2023-05-07T09:40:25.636Z,56.97
2023-05-07T09:44:35.193Z,56.87
2023-05-07T09:48:44.951Z,56.37
2023-05-07T09:52:47.747Z,55.42
2023-05-07T09:56:47.155Z,54.07
2023-05-07T10:00:56.908Z,53.28
2023-05-07T10:05:06.099Z,52.87
2023-05-07T10:09:15.508Z,52.16
2023-05-07T10:13:11.220Z,52.15
2023-05-07T10:17:20.864Z,50.83
2023-05-07T10:21:30.693Z,51.05
2023-05-07T10:25:18.917Z,50.74
2023-05-07T10:29:03.927Z,50.60
2023-05-07T10:33:05.208Z,50.58
2023-05-07T10:36:25.421Z,51.32
2023-05-07T10:40:23.433Z,51.83
2023-05-07T10:44:45.132Z,51.72
2023-05-07T10:48:30.124Z,51.38
2023-05-07T10:52:55.372Z,51.12
2023-05-07T10:57:21.471Z,50.83
2023-05-07T11:01:21.526Z,51.13
2023-05-07T11:05:29.770Z,51.40
2023-05-07T11:09:34.382Z,51.78
2023-05-07T11:13:10.609Z,52.18
2023-05-07T11:17:09.184Z,52.85
2023-05-07T11:21:30.680Z,53.18
2023-05-07T11:25:22.848Z,53.25
2023-05-07T11:29:32.444Z,53.00
2023-05-07T11:33:37.971Z,52.99
2023-05-07T11:37:15.945Z,53.02
2023-05-07T11:41:11.437Z,53.10
2023-05-07T11:45:18.058Z,52.93
2023-05-07T11:55:01.216Z,52.64
2023-05-07T11:58:33.472Z,52.67
2023-05-07T12:02:32.119Z,52.33
2023-05-07T12:06:06.511Z,53.10
2023-05-07T12:10:04.560Z,53.20
2023-05-07T12:13:48.549Z,52.90
2023-05-07T12:17:47.791Z,52.91
2023-05-07T12:21:50.337Z,52.49
2023-05-07T12:25:47.865Z,52.53
2023-05-07T12:29:48.814Z,52.50
2023-05-07T12:33:58.413Z,52.43
2023-05-07T12:37:44.195Z,52.39
2023-05-07T12:41:52.408Z,52.00
2023-05-07T12:46:02.368Z,52.05
2023-05-07T12:50:12.115Z,51.78
2023-05-07T12:54:14.556Z,51.73
2023-05-07T12:57:43.301Z,51.94
2023-05-07T13:01:51.878Z,51.89
2023-05-07T13:05:20.917Z,51.63
2023-05-07T13:09:16.081Z,51.48
2023-05-07T13:13:25.653Z,51.33
2023-05-07T13:17:35.663Z,50.86
2023-05-07T13:21:34.036Z,50.51
2023-05-07T13:25:37.185Z,50.07
2023-05-07T13:29:31.238Z,49.62
2023-05-07T13:33:30.938Z,49.65
2023-05-07T13:37:23.177Z,49.21
2023-05-07T13:41:08.516Z,49.30
2023-05-07T13:45:10.887Z,48.95
2023-05-07T13:49:03.616Z,48.18
2023-05-07T13:52:40.421Z,46.90
2023-05-07T13:56:50.096Z,45.25
2023-05-07T14:00:53.590Z,44.92
2023-05-07T14:03:55.794Z,44.13
2023-05-07T14:07:16.095Z,44.36
2023-05-07T14:10:54.194Z,43.61
2023-05-07T14:14:05.668Z,42.98
2023-05-07T14:18:00.725Z,42.90
2023-05-07T14:21:36.566Z,43.25
2023-05-07T14:24:41.248Z,42.53
2023-05-07T14:28:41.076Z,42.33
2023-05-07T14:32:43.693Z,42.87
2023-05-07T14:36:38.968Z,42.48
2023-05-07T14:40:48.729Z,42.03
2023-05-07T14:44:58.217Z,41.46
2023-05-07T14:59:27.076Z,35.55
2023-05-07T15:03:16.920Z,36.46
2023-05-07T15:07:08.851Z,37.35
2023-05-07T15:10:43.807Z,37.28
2023-05-07T15:14:51.918Z,37.13
2023-05-07T15:18:55.674Z,37.04
2023-05-07T15:22:05.113Z,36.89
2023-05-07T15:26:14.649Z,37.21
2023-05-07T15:30:53.992Z,37.31
2023-05-07T15:34:53.950Z,37.66
2023-05-07T15:37:56.060Z,36.99
2023-05-07T15:41:27.748Z,36.85
2023-05-07T15:45:27.186Z,37.04
2023-05-07T15:48:55.444Z,37.02
2023-05-07T15:52:54.424Z,36.43
2023-05-07T15:56:53.123Z,36.52
2023-05-07T16:00:48.262Z,36.87
2023-05-07T16:04:33.018Z,36.90
2023-05-07T16:08:42.489Z,36.23
2023-05-07T16:12:52.447Z,35.35
2023-05-07T16:16:50.329Z,34.19
2023-05-07T16:20:23.264Z,34.22
2023-05-07T16:23:27.826Z,34.00
2023-05-07T16:27:22.836Z,34.08
2023-05-07T16:31:11.988Z,34.14
2023-05-07T16:34:32.481Z,34.01
2023-05-07T16:38:11.731Z,33.76
2023-05-07T16:42:08.590Z,34.31
2023-05-07T16:45:59.864Z,34.46
2023-05-07T16:50:00.281Z,34.53
2023-05-07T16:54:09.754Z,35.22
2023-05-07T16:57:54.671Z,34.64
2023-05-07T17:01:57.093Z,34.89
2023-05-07T17:06:09.667Z,34.86
2023-05-07T17:10:17.443Z,35.35
2023-05-07T17:14:27.012Z,34.83
2023-05-07T17:18:26.363Z,35.47
2023-05-07T17:22:13.078Z,35.55
2023-05-07T17:26:22.498Z,35.04
2023-05-07T17:30:32.016Z,34.99
2023-05-07T17:34:21.577Z,34.68
2023-05-07T17:38:31.400Z,34.43
2023-05-07T17:42:39.933Z,34.50
2023-05-07T17:46:40.426Z,34.54
2023-05-07T17:50:49.983Z,34.58
2023-05-07T17:54:38.187Z,34.67
2023-05-07T17:58:49.007Z,34.74
2023-05-07T18:03:07.398Z,34.91
2023-05-07T18:07:07.581Z,35.26
2023-05-07T18:11:09.640Z,35.65
2023-05-07T18:14:31.351Z,36.05
2023-05-07T18:17:38.279Z,36.54
2023-05-07T18:21:30.423Z,36.97
2023-05-07T18:25:40.097Z,37.29
2023-05-07T18:29:49.626Z,37.84
2023-05-07T18:33:47.991Z,38.35
2023-05-07T18:37:48.347Z,38.87
2023-05-07T18:42:03.927Z,39.39
2023-05-07T18:46:06.324Z,39.77
2023-05-07T18:50:00.414Z,40.48
2023-05-07T18:53:53.151Z,41.10
2023-05-07T18:57:58.534Z,41.41
2023-05-07T19:02:08.042Z,41.85
2023-05-07T19:05:44.487Z,42.50
2023-05-07T19:09:25.775Z,43.07
2023-05-07T19:13:36.047Z,43.55
2023-05-07T19:17:13.394Z,43.85
2023-05-07T19:21:15.785Z,44.33
2023-05-07T19:24:59.018Z,44.60
2023-05-07T19:28:30.729Z,45.03
2023-05-07T19:32:40.483Z,45.31
2023-05-07T19:36:50.382Z,45.51
2023-05-07T19:40:14.732Z,45.90
2023-05-07T19:43:39.554Z,46.42
2023-05-07T19:47:36.192Z,46.71
2023-05-07T19:51:38.871Z,46.92
2023-05-07T19:55:31.701Z,47.13
2023-05-07T19:59:40.225Z,47.47
2023-05-07T20:03:49.864Z,47.65
2023-05-07T20:07:59.955Z,48.08
2023-05-07T20:12:09.444Z,48.40
2023-05-07T20:16:20.548Z,48.70
2023-05-07T20:20:30.848Z,48.98
2023-05-07T20:24:32.256Z,49.18
2023-05-07T20:28:01.282Z,49.61
2023-05-07T20:31:53.561Z,49.78
2023-05-07T20:36:01.826Z,50.06
2023-05-07T20:40:00.205Z,50.35
2023-05-07T20:44:09.822Z,50.60
2023-05-07T20:48:12.119Z,50.87
2023-05-07T20:51:50.269Z,51.19
2023-05-07T20:55:45.066Z,51.36
2023-05-07T20:59:53.738Z,51.48
2023-05-07T21:04:03.248Z,51.69
2023-05-07T21:08:12.923Z,51.96
2023-05-07T21:12:08.059Z,52.19
2023-05-07T21:16:10.852Z,52.32
2023-05-07T21:20:13.733Z,52.27
2023-05-07T21:24:23.827Z,52.39
2023-05-07T21:28:33.341Z,52.50
2023-05-07T21:32:41.614Z,52.43
2023-05-07T21:36:50.994Z,52.38
2023-05-07T21:41:00.646Z,52.25
2023-05-07T21:45:09.373Z,52.22
2023-05-07T21:49:19.113Z,52.25
2023-05-07T21:53:28.785Z,52.38
2023-05-07T21:57:21.750Z,52.37
2023-05-07T22:01:31.408Z,52.51
2023-05-07T22:05:41.017Z,52.61
2023-05-07T22:09:50.710Z,52.73
2023-05-07T22:13:48.944Z,52.93
2023-05-07T22:17:58.428Z,53.15
2023-05-07T22:22:07.812Z,53.33
2023-05-07T22:26:02.846Z,53.62
2023-05-07T22:29:47.015Z,53.89
2023-05-07T22:33:56.524Z,53.99
2023-05-07T22:38:05.742Z,54.02
2023-05-07T22:42:15.286Z,54.27
2023-05-07T22:46:25.142Z,54.54
2023-05-07T22:50:37.609Z,54.72
2023-05-07T22:54:47.163Z,54.89
2023-05-07T22:58:56.584Z,55.09
2023-05-07T23:02:59.182Z,55.26
2023-05-07T23:07:08.795Z,55.38
2023-05-07T23:11:18.342Z,55.51
2023-05-07T23:15:10.890Z,55.69
2023-05-07T23:19:19.205Z,55.90
2023-05-07T23:23:21.825Z,56.07
2023-05-07T23:34:58.397Z,57.25
2023-05-07T23:39:07.893Z,57.04
2023-05-07T23:43:16.596Z,57.05
2023-05-07T23:47:19.823Z,57.18
2023-05-07T23:51:29.577Z,57.36
2023-05-07T23:55:40.859Z,57.54
2023-05-07T23:59:43.015Z,57.88
